Time;durP1;ratioP1;P1;durP2;ratioP2;P2;SDS_P1;SDS_P2;PMS_P1;PMS_P2;Temp;Humidity;BMP_temperature;BMP_pressure;BME280_temperature;BME280_humidity;BME280_pressure;Samples;Min_cycle;Max_cycle;Signal;HPM_P1;HPM_P2
2022/05/04 16:02:02;;;;;;;7.25;2.53;;;;;;;17.63;36.17;101336.94;5072146;27;20450;-84
2022/05/04 16:04:27;;;;;;;9.77;2.55;;;;;;;17.76;35.49;101336.50;5054717;28;20033;-86
2022/05/04 16:06:52;;;;;;;6.82;2.75;;;;;;;17.77;35.13;101330.31;5051656;28;20361;-86
2022/05/04 16:09:18;;;;;;;6.45;2.70;;;;;;;17.74;36.07;101321.56;5052026;22;20582;-88
2022/05/04 16:11:45;;;;;;;6.68;2.40;;;;;;;17.52;35.13;101323.22;5028457;28;20095;-88
2022/05/04 16:14:10;;;;;;;3.95;2.22;;;;;;;17.23;36.73;101336.56;5013340;28;20036;-88
2022/05/04 16:16:36;;;;;;;7.25;2.08;;;;;;;16.91;36.49;101332.34;5014556;28;20029;-88
2022/05/04 16:21:45;;;;;;;6.32;2.40;;;;;;;16.35;39.35;101322.63;5026050;28;20045;-87
2022/05/04 16:24:14;;;;;;;6.55;2.17;;;;;;;16.09;38.25;101328.66;5010125;28;20030;-88
2022/05/04 16:26:42;;;;;;;7.93;2.92;;;;;;;15.61;38.37;101337.88;4994733;28;20022;-87
2022/05/04 16:29:08;;;;;;;6.03;2.85;;;;;;;15.33;39.93;101333.34;4993331;28;20022;-87
2022/05/04 16:31:33;;;;;;;5.72;2.45;;;;;;;15.23;41.42;101331.84;4993756;28;20030;-87
2022/05/04 16:33:59;;;;;;;7.35;2.50;;;;;;;14.91;40.60;101329.09;4992421;28;20029;-87
2022/05/04 16:36:24;;;;;;;5.43;2.13;;;;;;;14.78;41.11;101333.81;5007872;28;20026;-87
2022/05/04 16:38:50;;;;;;;7.20;2.35;;;;;;;14.66;42.68;101327.06;4985912;28;20041;-87
2022/05/04 16:41:15;;;;;;;6.47;2.28;;;;;;;14.49;43.10;101331.81;4971863;28;20109;-87
2022/05/04 16:43:40;;;;;;;8.55;2.33;;;;;;;14.23;43.56;101321.88;4972469;28;20375;-89
2022/05/04 16:46:06;;;;;;;5.57;2.40;;;;;;;14.23;44.00;101329.75;4972829;28;20034;-88
2022/05/04 16:48:31;;;;;;;7.82;1.65;;;;;;;14.26;43.93;101325.31;4989323;28;20358;-87
2022/05/04 16:50:57;;;;;;;6.32;2.60;;;;;;;14.35;44.12;101332.97;4990566;28;20022;-86
2022/05/04 16:53:22;;;;;;;8.95;2.72;;;;;;;14.03;44.02;101329.28;4990762;28;20029;-87
2022/05/04 16:55:48;;;;;;;8.98;2.22;;;;;;;14.01;45.25;101333.69;4980697;28;20488;-87
2022/05/04 16:58:29;;;;;;;7.43;2.13;;;;;;;13.95;45.02;101323.31;4999734;28;20022;-93
2022/05/04 17:00:55;;;;;;;6.43;2.20;;;;;;;13.94;45.35;101323.34;4993336;28;20025;-87
2022/05/04 17:03:21;;;;;;;7.38;2.17;;;;;;;13.83;45.13;101331.44;4994355;28;20485;-86
2022/05/04 17:05:47;;;;;;;7.97;2.78;;;;;;;13.69;46.34;101327.31;4994351;28;20490;-90
2022/05/04 17:08:13;;;;;;;8.73;3.40;;;;;;;13.64;46.38;101328.31;5009368;28;20041;-87
2022/05/04 17:10:38;;;;;;;5.07;2.22;;;;;;;13.54;45.75;101327.59;4991929;28;20481;-87
2022/05/04 17:13:04;;;;;;;7.95;2.60;;;;;;;13.60;45.73;101337.13;4997414;28;20405;-87
2022/05/04 17:15:29;;;;;;;4.65;2.30;;;;;;;13.53;46.03;101342.47;4995553;28;20030;-87
2022/05/04 17:17:54;;;;;;;5.07;1.90;;;;;;;13.43;46.52;101329.53;4978734;28;20109;-87
2022/05/04 17:20:20;;;;;;;4.47;2.13;;;;;;;13.39;46.53;101331.38;4979087;28;20018;-89
2022/05/04 17:22:45;;;;;;;4.75;1.98;;;;;;;13.26;46.83;101342.94;4978617;28;20116;-88
2022/05/04 17:25:11;;;;;;;3.90;2.40;;;;;;;13.25;46.82;101344.72;4979940;28;20496;-90
2022/05/04 17:27:37;;;;;;;5.72;2.20;;;;;;;13.17;47.27;101339.59;4980543;28;20045;-87
2022/05/04 17:30:03;;;;;;;6.63;2.28;;;;;;;13.10;47.20;101337.06;4980203;28;20053;-87
2022/05/04 17:37:57;;;;;;;5.25;2.30;;;;;;;12.69;47.19;101336.81;4997745;28;20085;-90
2022/05/04 17:40:22;;;;;;;7.15;2.08;;;;;;;12.51;48.01;101337.97;4981065;28;20018;-88
2022/05/04 17:42:48;;;;;;;5.18;2.10;;;;;;;12.39;47.94;101343.38;4998449;28;20121;-88
2022/05/04 17:45:13;;;;;;;5.60;1.98;;;;;;;12.18;48.13;101332.28;4986617;28;20010;-89
2022/05/04 17:47:40;;;;;;;7.22;2.40;;;;;;;12.23;50.14;101345.31;4993737;28;20502;-89
2022/05/04 17:50:07;;;;;;;5.55;2.25;;;;;;;12.10;48.63;101347.25;4978756;28;20030;-90
2022/05/04 17:52:32;;;;;;;8.80;2.35;;;;;;;11.96;48.48;101329.09;4977975;28;20154;-89
2022/05/04 17:54:57;;;;;;;6.30;2.13;;;;;;;11.97;49.64;101339.53;4977714;28;20069;-87
2022/05/04 17:57:22;;;;;;;5.80;1.92;;;;;;;11.99;49.45;101345.59;4994709;28;20022;-87
2022/05/04 17:59:48;;;;;;;9.60;2.35;;;;;;;12.00;50.14;101347.34;4978767;28;20034;-88
2022/05/04 18:04:57;;;;;;;9.77;2.92;;;;;;;11.91;49.26;101351.78;4994335;28;20114;-90
2022/05/04 18:07:23;;;;;;;4.78;2.30;;;;;;;11.83;49.85;101338.78;4978278;28;20026;-90
2022/05/04 18:09:48;;;;;;;6.05;2.10;;;;;;;11.74;49.40;101344.09;4980511;28;20049;-89
2022/05/04 18:12:13;;;;;;;7.28;2.08;;;;;;;11.79;50.37;101358.00;4977930;28;20026;-89
2022/05/04 18:14:39;;;;;;;4.15;2.05;;;;;;;11.67;50.52;101357.28;4993520;28;20044;-89
2022/05/04 18:17:04;;;;;;;9.32;1.92;;;;;;;11.64;50.51;101365.16;4978082;28;20026;-88
2022/05/04 18:19:30;;;;;;;4.05;2.00;;;;;;;11.62;51.07;101366.06;4978622;28;20122;-88
2022/05/04 18:21:55;;;;;;;5.22;1.90;;;;;;;11.54;50.54;101368.75;4980305;28;20026;-88
2022/05/04 18:24:21;;;;;;;6.80;2.13;;;;;;;11.42;50.74;101369.72;4977972;28;20026;-88
2022/05/04 18:26:46;;;;;;;4.20;2.33;;;;;;;11.35;52.56;101373.28;4981030;28;20498;-89
2022/05/04 18:29:12;;;;;;;4.15;2.13;;;;;;;11.33;51.57;101380.28;4981212;28;20053;-88
2022/05/04 18:31:37;;;;;;;4.40;1.85;;;;;;;11.26;51.94;101378.56;4983103;28;20041;-88
2022/05/04 18:34:03;;;;;;;7.93;2.38;;;;;;;11.20;52.33;101379.50;4982133;28;20034;-88
2022/05/04 18:36:29;;;;;;;8.68;3.92;;;;;;;11.15;52.02;101386.50;4978755;28;20029;-89
2022/05/04 18:39:04;;;;;;;12.25;2.30;;;;;;;11.08;51.76;101390.03;4976465;28;20388;-91
2022/05/04 18:41:30;;;;;;;6.55;2.30;;;;;;;10.92;53.58;101384.94;4976935;28;20019;-91
2022/05/04 18:43:57;;;;;;;6.53;2.30;;;;;;;10.92;53.03;101390.16;4977302;28;20029;-91
2022/05/04 18:46:22;;;;;;;5.47;1.92;;;;;;;10.91;54.03;101392.78;4977028;28;20112;-91
2022/05/04 18:48:48;;;;;;;4.65;2.42;;;;;;;10.76;53.46;101378.06;4977245;28;20078;-91
2022/05/04 18:51:14;;;;;;;6.72;2.38;;;;;;;10.72;53.14;101374.59;4976886;28;20030;-91
2022/05/04 18:53:40;;;;;;;10.68;1.83;;;;;;;10.65;53.51;101381.59;4977341;28;20034;-90
2022/05/04 18:56:05;;;;;;;5.60;2.60;;;;;;;10.73;54.70;101398.97;4977231;28;20026;-90
2022/05/04 18:58:31;;;;;;;4.35;2.22;;;;;;;10.59;53.65;101392.09;4976999;28;20493;-90
2022/05/04 19:00:57;;;;;;;3.75;2.00;;;;;;;10.51;54.04;101388.63;4976763;28;20018;-91
2022/05/04 19:03:22;;;;;;;4.60;2.53;;;;;;;10.54;55.54;101411.25;4976503;28;20032;-90
2022/05/04 19:05:48;;;;;;;5.25;2.50;;;;;;;10.34;54.57;101390.44;4977009;28;20018;-90
2022/05/04 19:08:13;;;;;;;3.88;2.22;;;;;;;10.40;54.44;101395.66;4976562;28;20109;-90
2022/05/04 19:10:39;;;;;;;6.80;2.42;;;;;;;10.33;54.93;101405.22;4976469;28;20023;-91
2022/05/04 19:13:04;;;;;;;5.63;2.42;;;;;;;10.22;54.83;101402.66;4976751;28;20026;-91
2022/05/04 19:15:30;;;;;;;10.23;2.83;;;;;;;10.15;55.18;101393.09;4976983;28;20394;-90
2022/05/04 19:17:55;;;;;;;6.78;2.33;;;;;;;10.26;55.34;101413.97;4976730;28;20049;-90
2022/05/04 19:20:21;;;;;;;8.38;2.15;;;;;;;10.10;55.35;101397.47;4972515;28;20049;-90
2022/05/04 19:22:46;;;;;;;7.82;2.42;;;;;;;10.21;55.79;101434.00;4957341;28;20109;-90
2022/05/04 19:25:12;;;;;;;6.10;2.47;;;;;;;9.93;55.51;101414.03;4957001;28;20069;-88
2022/05/04 19:27:37;;;;;;;11.20;2.42;;;;;;;9.91;55.98;101422.75;4957836;28;20391;-87
2022/05/04 19:30:04;;;;;;;8.02;2.78;;;;;;;9.91;56.22;101431.47;4958879;28;20033;-86
2022/05/04 19:32:30;;;;;;;5.93;3.13;;;;;;;9.90;56.73;101444.50;4958381;28;20042;-87
2022/05/04 19:34:55;;;;;;;4.45;2.42;;;;;;;9.81;56.77;101437.56;4957292;28;20058;-87
2022/05/04 19:37:20;;;;;;;12.02;2.72;;;;;;;9.67;56.65;101436.69;4958003;28;20023;-86
2022/05/04 19:39:47;;;;;;;7.07;2.58;;;;;;;9.56;57.41;101432.34;4956766;28;20022;-90
2022/05/04 19:42:12;;;;;;;6.88;2.15;;;;;;;9.52;55.61;101428.00;4956179;28;20501;-90
2022/05/04 19:44:39;;;;;;;6.70;2.58;;;;;;;9.62;56.07;101449.75;4956384;28;20022;-90
2022/05/04 19:47:05;;;;;;;4.55;2.45;;;;;;;9.58;56.35;101456.69;4956878;28;20038;-89
2022/05/04 19:49:30;;;;;;;6.35;2.90;;;;;;;9.48;57.90;101444.53;4956541;28;20022;-89
2022/05/04 19:51:55;;;;;;;9.15;2.30;;;;;;;9.44;57.22;101459.28;4957377;28;20402;-86
2022/05/04 19:54:21;;;;;;;5.18;2.42;;;;;;;9.40;56.50;101446.25;4972851;28;20105;-86
2022/05/04 19:56:46;;;;;;;7.47;2.40;;;;;;;9.32;57.38;101469.72;4956301;28;20030;-86
2022/05/04 19:59:11;;;;;;;8.13;2.50;;;;;;;9.23;57.29;101460.16;4956687;28;20034;-86
2022/05/04 20:01:37;;;;;;;7.70;3.00;;;;;;;9.13;58.11;101455.78;4973121;28;20035;-86
2022/05/04 20:04:02;;;;;;;5.90;2.83;;;;;;;9.08;58.26;101454.88;4972610;28;20026;-86
2022/05/04 20:06:27;;;;;;;6.82;2.92;;;;;;;8.95;58.71;101464.44;4956269;28;20027;-86
2022/05/04 20:08:53;;;;;;;5.18;2.35;;;;;;;8.89;58.42;101465.28;4959490;28;20478;-86
2022/05/04 20:11:18;;;;;;;5.85;2.72;;;;;;;8.87;59.02;101467.00;4975591;28;20080;-86
2022/05/04 20:13:44;;;;;;;6.75;2.63;;;;;;;8.86;59.65;101467.00;4992419;28;20026;-86
2022/05/04 20:16:09;;;;;;;5.90;3.50;;;;;;;8.81;59.58;101464.38;4973749;28;20479;-87
2022/05/04 20:18:35;;;;;;;9.20;2.40;;;;;;;8.78;59.12;101466.97;4956501;28;20023;-87
2022/05/04 20:21:00;;;;;;;4.53;2.80;;;;;;;8.61;59.52;101459.09;4956462;28;20076;-87
2022/05/04 20:23:26;;;;;;;7.88;2.97;;;;;;;8.62;59.96;101477.34;4973384;28;20116;-86
2022/05/04 20:25:51;;;;;;;8.85;3.08;;;;;;;8.53;58.94;101482.50;4957415;28;20112;-86
2022/05/04 20:28:17;;;;;;;7.32;3.65;;;;;;;8.46;59.72;101476.38;4957712;28;20077;-85
2022/05/04 20:30:42;;;;;;;7.88;3.10;;;;;;;8.50;59.26;101487.69;4973492;28;20609;-86
2022/05/04 20:33:08;;;;;;;12.00;3.20;;;;;;;8.53;59.77;101489.44;4973462;28;20027;-86
2022/05/04 20:35:34;;;;;;;9.02;2.90;;;;;;;8.61;59.38;101479.94;4973261;28;20425;-86
2022/05/04 20:40:43;;;;;;;6.07;2.80;;;;;;;8.42;59.88;101479.78;4975730;28;20501;-86
2022/05/04 20:43:09;;;;;;;11.63;3.20;;;;;;;8.45;60.35;101489.41;4957896;28;20115;-87
2022/05/04 20:45:34;;;;;;;6.85;3.05;;;;;;;8.53;59.51;101492.03;4957292;28;20486;-86
2022/05/04 20:48:00;;;;;;;7.50;3.05;;;;;;;8.39;60.51;101494.56;4977690;28;20164;-87
2022/05/04 20:53:09;;;;;;;5.43;2.70;;;;;;;8.23;60.34;101496.19;4996710;28;20104;-86
2022/05/04 20:55:35;;;;;;;6.85;2.80;;;;;;;8.20;61.28;101497.03;4995973;28;20030;-85
2022/05/04 20:58:00;;;;;;;8.90;3.17;;;;;;;8.11;61.65;101500.47;4996088;28;20037;-86
2022/05/04 21:00:26;;;;;;;4.72;2.92;;;;;;;8.10;60.92;101493.50;4996109;28;20062;-87
2022/05/04 21:02:51;;;;;;;6.60;3.22;;;;;;;8.13;60.52;101503.06;4979435;28;20048;-88
2022/05/04 21:05:17;;;;;;;6.80;2.50;;;;;;;8.21;61.35;101506.59;4978831;28;20037;-88
2022/05/04 21:07:42;;;;;;;9.60;4.10;;;;;;;8.10;60.11;101508.25;4979495;28;20065;-88
2022/05/04 21:10:08;;;;;;;11.75;4.70;;;;;;;8.02;61.58;101509.94;5011304;28;20030;-87
2022/05/04 21:12:36;;;;;;;7.55;3.47;;;;;;;7.95;61.33;101517.69;4995375;28;20023;-87
2022/05/04 21:15:03;;;;;;;7.40;3.90;;;;;;;7.92;61.18;101517.66;4979250;28;20755;-88
2022/05/04 21:17:28;;;;;;;8.15;3.40;;;;;;;7.88;60.95;101496.78;4979163;28;20022;-87
2022/05/04 21:19:54;;;;;;;9.48;3.67;;;;;;;7.92;62.54;101499.44;4979303;28;20375;-88
2022/05/04 21:22:19;;;;;;;8.90;3.50;;;;;;;7.82;61.38;101497.63;4978763;28;20056;-88
2022/05/04 21:24:44;;;;;;;6.95;3.20;;;;;;;7.99;61.71;101509.88;4994963;28;20118;-87
2022/05/04 21:27:10;;;;;;;6.30;2.50;;;;;;;8.00;61.12;101509.03;4978790;28;20030;-87
2022/05/04 21:29:35;;;;;;;6.82;3.10;;;;;;;7.75;61.67;101522.72;4995213;28;20026;-87
2022/05/04 21:32:00;;;;;;;4.32;2.80;;;;;;;7.77;62.54;101520.13;4978537;28;20084;-88
2022/05/04 21:34:28;;;;;;;4.97;2.45;;;;;;;7.74;62.81;101499.28;4994837;28;20478;-87
2022/05/04 21:36:54;;;;;;;4.78;2.80;;;;;;;7.82;61.36;101527.97;4978675;28;20452;-87
2022/05/04 21:39:20;;;;;;;6.65;2.95;;;;;;;7.72;60.56;101506.22;4978545;28;20109;-88
2022/05/04 21:41:45;;;;;;;3.85;2.60;;;;;;;7.81;61.78;101516.69;4978614;28;20157;-88
2022/05/04 21:44:12;;;;;;;4.53;3.00;;;;;;;7.74;61.45;101508.00;4994653;28;20038;-87
2022/05/04 21:46:37;;;;;;;4.03;2.80;;;;;;;7.72;61.36;101527.03;4978885;28;20466;-88
2022/05/04 21:49:03;;;;;;;3.20;2.70;;;;;;;7.65;61.12;101507.00;4978548;28;20032;-88
2022/05/04 21:51:28;;;;;;;5.45;2.35;;;;;;;7.65;61.87;101522.63;4978340;28;20061;-87
2022/05/04 21:53:53;;;;;;;4.22;2.53;;;;;;;7.68;61.22;101525.25;4978462;28;20026;-88
2022/05/04 21:56:19;;;;;;;6.40;2.47;;;;;;;7.55;61.05;101504.34;4994180;28;20022;-88
2022/05/04 21:58:44;;;;;;;6.15;2.42;;;;;;;7.68;61.96;101527.88;4978154;28;20081;-87
2022/05/04 22:01:10;;;;;;;3.10;2.58;;;;;;;7.51;62.11;101528.59;4978271;28;20046;-87
2022/05/04 22:03:36;;;;;;;6.43;2.67;;;;;;;7.35;62.01;101517.16;4994600;28;20030;-87
2022/05/04 22:06:03;;;;;;;7.10;2.80;;;;;;;7.35;62.86;101521.44;4994131;28;20018;-87
2022/05/04 22:08:28;;;;;;;5.20;2.70;;;;;;;7.33;62.85;101533.59;4994736;28;20034;-87
2022/05/04 22:13:56;;;;;;;5.05;2.80;;;;;;;7.43;62.44;101530.19;5016084;28;20041;-87
2022/05/04 22:16:27;;;;;;;8.13;2.80;;;;;;;7.25;63.68;101534.38;5004766;28;20030;-87
2022/05/04 22:18:53;;;;;;;6.55;2.60;;;;;;;7.27;62.63;101540.44;4987086;28;20076;-87
2022/05/04 22:21:20;;;;;;;6.30;2.80;;;;;;;7.21;63.34;101542.09;5002712;28;20022;-88
2022/05/04 22:23:45;;;;;;;4.60;2.65;;;;;;;7.11;62.84;101536.78;4986401;28;20026;-87
2022/05/04 22:26:11;;;;;;;5.07;2.40;;;;;;;7.11;63.08;101548.94;4987074;28;20025;-87
2022/05/04 22:28:36;;;;;;;6.25;3.38;;;;;;;7.10;63.71;101545.47;5003744;28;20026;-87
2022/05/04 22:31:02;;;;;;;4.55;2.45;;;;;;;7.02;63.28;101538.41;5019231;28;20073;-87
2022/05/04 22:33:27;;;;;;;3.05;2.47;;;;;;;6.97;62.97;101535.78;4987406;28;20022;-87
2022/05/04 22:35:53;;;;;;;5.05;3.00;;;;;;;6.89;64.15;101543.47;4987269;28;20018;-87
2022/05/04 22:38:18;;;;;;;5.15;2.67;;;;;;;6.88;64.28;101552.09;4995683;28;20045;-86
2022/05/04 22:40:43;;;;;;;7.07;2.75;;;;;;;6.84;64.17;101545.13;4986524;28;20041;-87
2022/05/04 22:43:09;;;;;;;7.10;2.85;;;;;;;6.77;63.92;101538.13;4986903;28;20026;-87
2022/05/04 22:45:34;;;;;;;4.93;2.80;;;;;;;6.71;64.76;101545.84;4986649;28;20022;-87
2022/05/04 22:48:00;;;;;;;4.07;2.97;;;;;;;6.72;64.44;101538.06;4986476;28;20033;-87
2022/05/04 22:50:25;;;;;;;3.55;2.80;;;;;;;6.77;64.01;101545.91;4985963;28;20030;-87
2022/05/04 22:52:51;;;;;;;4.90;3.17;;;;;;;6.75;64.58;101547.63;4986462;28;20120;-87
2022/05/04 22:55:16;;;;;;;3.95;2.85;;;;;;;6.76;65.24;101558.03;4985882;28;20030;-87
2022/05/04 22:57:43;;;;;;;7.72;3.72;;;;;;;6.65;65.61;101548.34;5002739;28;20030;-87
2022/05/04 23:00:09;;;;;;;4.20;3.10;;;;;;;6.48;65.95;101533.41;4986708;28;20033;-87
2022/05/04 23:02:34;;;;;;;6.38;3.38;;;;;;;6.50;66.12;101539.47;4986533;28;20022;-87
2022/05/04 23:04:59;;;;;;;5.30;2.92;;;;;;;6.52;64.89;101548.19;5001675;28;20429;-87
2022/05/04 23:07:25;;;;;;;9.32;3.58;;;;;;;6.40;66.61;101540.22;4986157;28;20054;-87
2022/05/04 23:09:52;;;;;;;4.50;3.00;;;;;;;6.31;66.77;101545.25;4984677;28;20061;-87
2022/05/04 23:12:20;;;;;;;4.25;3.22;;;;;;;6.23;67.35;101551.22;4986569;28;20056;-87
2022/05/04 23:14:45;;;;;;;5.95;3.20;;;;;;;6.16;66.21;101536.41;4985963;28;20433;-88
2022/05/04 23:17:11;;;;;;;7.38;3.35;;;;;;;6.18;66.82;101558.06;5003268;28;20034;-87
2022/05/04 23:19:36;;;;;;;4.30;3.05;;;;;;;6.23;66.68;101551.22;5002988;28;20049;-87
2022/05/04 23:22:02;;;;;;;3.47;2.75;;;;;;;6.25;66.27;101549.50;4985794;28;20026;-87
2022/05/04 23:24:27;;;;;;;5.47;3.00;;;;;;;6.22;66.57;101543.41;4986148;28;20026;-87
2022/05/04 23:26:52;;;;;;;7.35;3.20;;;;;;;6.11;67.27;101535.47;5001890;28;20018;-87
2022/05/04 23:29:18;;;;;;;4.82;2.95;;;;;;;6.14;66.87;101551.06;4985556;28;20225;-87
2022/05/04 23:31:43;;;;;;;5.47;3.05;;;;;;;6.04;66.52;101544.88;4986123;28;20026;-87
2022/05/04 23:34:09;;;;;;;9.02;3.75;;;;;;;6.03;67.03;101545.72;5003788;28;20033;-87
2022/05/04 23:39:25;;;;;;;4.60;3.42;;;;;;;5.95;67.42;101543.81;5003839;28;20033;-87
2022/05/04 23:41:50;;;;;;;3.33;3.03;;;;;;;5.92;67.79;101547.22;4994641;28;20056;-86
2022/05/04 23:44:16;;;;;;;5.03;3.20;;;;;;;5.87;67.86;101541.94;4987117;28;20037;-87
2022/05/04 23:46:41;;;;;;;4.53;3.70;;;;;;;5.82;68.59;101537.53;5001804;28;20026;-87
2022/05/04 23:49:07;;;;;;;4.45;3.17;;;;;;;5.93;67.81;101554.13;5002498;28;20022;-87
2022/05/04 23:51:32;;;;;;;4.10;3.10;;;;;;;5.87;67.56;101539.34;5003435;28;20064;-87
2022/05/04 23:53:57;;;;;;;5.28;3.20;;;;;;;5.81;67.38;101531.50;4986031;28;20022;-87
2022/05/04 23:56:23;;;;;;;7.05;3.63;;;;;;;5.96;68.25;101541.25;5002824;28;20065;-86
2022/05/04 23:58:48;;;;;;;6.25;3.78;;;;;;;5.96;68.09;101535.16;5002331;28;20032;-87
